createdAt,value
2023-02-15T00:02:04.980Z,101596.63
2023-02-15T00:04:49.839Z,101599.28
2023-02-15T00:07:22.404Z,101591.50
2023-02-15T00:09:52.869Z,101588.09
2023-02-15T00:12:23.079Z,101595.06
2023-02-15T00:14:55.922Z,101588.16
2023-02-15T00:17:26.168Z,101583.09
2023-02-15T00:19:56.346Z,101594.34
2023-02-15T00:22:26.567Z,101581.38
2023-02-15T00:24:56.870Z,101574.53
2023-02-15T00:27:27.466Z,101583.22
2023-02-15T00:30:00.334Z,101581.47
2023-02-15T00:32:30.476Z,101579.78
2023-02-15T00:35:00.632Z,101575.50
2023-02-15T00:37:30.845Z,101580.69
2023-02-15T00:40:01.088Z,101585.91
2023-02-15T00:42:31.284Z,101585.03
2023-02-15T00:45:04.072Z,101585.97
2023-02-15T00:47:34.319Z,101568.66
2023-02-15T00:50:04.683Z,101576.38
2023-02-15T00:52:35.061Z,101573.84
2023-02-15T00:55:05.295Z,101573.03
2023-02-15T00:57:35.534Z,101567.84
2023-02-15T01:00:09.969Z,101569.56
2023-02-15T01:02:40.224Z,101565.28
2023-02-15T01:05:10.839Z,101561.84
2023-02-15T01:07:41.110Z,101566.22
2023-02-15T01:10:12.999Z,101572.22
2023-02-15T01:12:46.212Z,101567.94
2023-02-15T01:15:19.064Z,101559.31
2023-02-15T01:17:53.701Z,101562.81
2023-02-15T01:20:25.154Z,101533.56
2023-02-15T01:22:55.388Z,101555.09
2023-02-15T01:25:27.978Z,101560.22
2023-02-15T01:27:58.132Z,101555.94
2023-02-15T01:30:31.267Z,101554.25
2023-02-15T01:33:01.857Z,101555.97
2023-02-15T01:35:32.267Z,101566.34
2023-02-15T01:38:02.500Z,101551.66
2023-02-15T01:40:32.855Z,101551.69
2023-02-15T01:43:03.032Z,101547.41
2023-02-15T01:45:36.367Z,101547.34
2023-02-15T01:48:09.824Z,101547.31
2023-02-15T01:50:44.202Z,101545.50
2023-02-15T01:53:19.854Z,101542.88
2023-02-15T01:55:55.127Z,101534.16
2023-02-15T01:58:26.652Z,101522.94
2023-02-15T02:01:04.644Z,101531.50
2023-02-15T02:03:45.071Z,101531.53
2023-02-15T02:06:15.347Z,101532.44
2023-02-15T02:08:47.813Z,101532.47
2023-02-15T02:11:18.763Z,101533.38
2023-02-15T02:13:50.183Z,101529.09
2023-02-15T02:16:28.732Z,101526.53
2023-02-15T02:19:18.490Z,101524.81
2023-02-15T02:22:32.831Z,101524.84
2023-02-15T02:25:27.639Z,101523.19
2023-02-15T02:28:12.034Z,101527.50
2023-02-15T02:30:52.739Z,101527.50
2023-02-15T02:33:36.287Z,101531.81
2023-02-15T02:36:18.734Z,101525.81
2023-02-15T02:39:03.354Z,101529.28
2023-02-15T02:41:42.597Z,101526.72
2023-02-15T02:44:19.661Z,101527.59
2023-02-15T02:46:56.339Z,101532.84
2023-02-15T02:49:40.830Z,101533.69
2023-02-15T02:52:30.683Z,101534.63
2023-02-15T02:55:00.956Z,101531.22
2023-02-15T02:57:32.727Z,101519.25
2023-02-15T03:00:06.010Z,101532.16
2023-02-15T03:02:41.730Z,101531.31
2023-02-15T03:05:19.024Z,101524.41
2023-02-15T03:07:53.495Z,101533.94
2023-02-15T03:10:26.250Z,101529.69
2023-02-15T03:12:56.874Z,101527.09
2023-02-15T03:15:49.275Z,101528.84
2023-02-15T03:18:21.946Z,101528.00
2023-02-15T03:20:56.559Z,101521.13
2023-02-15T03:23:31.609Z,101519.41
2023-02-15T03:26:05.133Z,101516.81
2023-02-15T03:28:40.322Z,101514.22
2023-02-15T03:31:12.435Z,101518.53
2023-02-15T03:33:48.718Z,101528.84
2023-02-15T03:36:26.973Z,101534.88
2023-02-15T03:39:04.410Z,101533.16
2023-02-15T03:41:38.471Z,101542.69
2023-02-15T03:44:10.803Z,101530.59
2023-02-15T03:46:47.659Z,101533.16
2023-02-15T03:49:23.067Z,101529.75
2023-02-15T03:51:57.194Z,101525.44
2023-02-15T03:54:41.410Z,101534.94
2023-02-15T03:57:29.328Z,101539.25
2023-02-15T04:00:12.419Z,101534.94
2023-02-15T04:02:48.734Z,101508.34
2023-02-15T04:05:19.123Z,101542.72
2023-02-15T04:07:51.951Z,101546.16
2023-02-15T04:10:34.499Z,101547.84
2023-02-15T04:13:04.782Z,101546.09
2023-02-15T04:15:47.261Z,101546.03
2023-02-15T04:18:17.689Z,101546.03
2023-02-15T04:21:00.649Z,101546.91
2023-02-15T04:23:45.927Z,101539.97
2023-02-15T04:26:16.174Z,101540.91
2023-02-15T04:28:46.911Z,101546.09
2023-02-15T04:31:17.219Z,101541.72
2023-02-15T04:33:48.912Z,101552.13
2023-02-15T04:36:19.062Z,101555.56
2023-02-15T04:38:52.088Z,101555.50
2023-02-15T04:41:22.284Z,101553.69
2023-02-15T04:43:52.482Z,101555.41
2023-02-15T04:46:24.732Z,101559.72
2023-02-15T04:48:54.943Z,101563.22
2023-02-15T04:51:25.511Z,101570.09
2023-02-15T04:53:58.447Z,101569.19
2023-02-15T04:56:28.603Z,101564.91
2023-02-15T04:58:58.780Z,101568.41
2023-02-15T05:01:29.144Z,101570.16
2023-02-15T05:04:00.026Z,101562.47
2023-02-15T05:06:30.252Z,101571.97
2023-02-15T05:09:03.633Z,101572.03
2023-02-15T05:11:33.796Z,101574.63
2023-02-15T05:14:04.009Z,101572.06
2023-02-15T05:16:34.342Z,101578.09
2023-02-15T05:19:04.755Z,101573.75
2023-02-15T05:21:36.134Z,101576.38
2023-02-15T05:24:30.329Z,101578.13
2023-02-15T05:27:12.890Z,101580.72
2023-02-15T05:29:46.123Z,101589.38
2023-02-15T05:32:17.435Z,101583.34
2023-02-15T05:34:47.703Z,101592.88
2023-02-15T05:37:17.927Z,101596.34
2023-02-15T05:39:50.770Z,101592.94
2023-02-15T05:42:20.948Z,101601.63
2023-02-15T05:44:51.191Z,101600.75
2023-02-15T05:47:21.415Z,101605.06
2023-02-15T05:49:51.726Z,101609.38
2023-02-15T05:52:22.111Z,101610.25
2023-02-15T05:54:55.287Z,101609.41
2023-02-15T05:57:28.523Z,101616.31
2023-02-15T05:59:58.841Z,101618.00
2023-02-15T06:02:29.180Z,101613.69
2023-02-15T06:04:59.392Z,101624.00
2023-02-15T06:07:29.602Z,101611.88
2023-02-15T06:10:02.564Z,101627.41
2023-02-15T06:12:33.037Z,101622.19
2023-02-15T06:15:03.160Z,101620.44
2023-02-15T06:17:33.545Z,101621.22
2023-02-15T06:20:03.850Z,101619.44
2023-02-15T06:22:34.186Z,101614.22
2023-02-15T06:25:07.450Z,101618.41
2023-02-15T06:27:37.691Z,101622.59
2023-02-15T06:30:10.323Z,101606.84
2023-02-15T06:32:41.745Z,101612.53
2023-02-15T06:35:12.647Z,101615.59
2023-02-15T06:37:43.245Z,101627.22
2023-02-15T06:40:16.909Z,101619.81
2023-02-15T06:42:47.536Z,101615.59
2023-02-15T06:45:18.013Z,101618.41
2023-02-15T06:47:48.403Z,101615.94
2023-02-15T06:50:19.164Z,101618.63
2023-02-15T06:52:49.347Z,101621.09
2023-02-15T06:55:22.105Z,101618.31
2023-02-15T06:57:52.387Z,101621.06
2023-02-15T07:00:24.352Z,101611.22
2023-02-15T07:02:59.100Z,101614.84
2023-02-15T07:05:32.472Z,101616.78
2023-02-15T07:08:03.708Z,101612.19
2023-02-15T07:10:36.482Z,101610.91
2023-02-15T07:13:04.414Z,101612.44
2023-02-15T07:15:34.688Z,101615.72
2023-02-15T07:18:06.230Z,101613.09
2023-02-15T07:20:37.691Z,101615.88
2023-02-15T07:23:09.267Z,101605.44
2023-02-15T07:25:42.031Z,101607.13
2023-02-15T07:28:12.274Z,101609.34
2023-02-15T07:30:42.534Z,101608.69
2023-02-15T07:33:30.976Z,101608.94
2023-02-15T07:36:03.483Z,101595.72
2023-02-15T07:38:35.878Z,101598.78
2023-02-15T07:41:11.239Z,101599.91
2023-02-15T07:43:42.985Z,101608.88
2023-02-15T07:46:15.906Z,101593.91
2023-02-15T07:48:49.597Z,101594.91
2023-02-15T07:51:20.065Z,101597.13
2023-02-15T07:53:52.652Z,101590.25
2023-02-15T07:56:25.603Z,101595.00
2023-02-15T07:58:56.951Z,101596.72
2023-02-15T08:01:28.883Z,101594.00
2023-02-15T08:03:59.798Z,101586.53
2023-02-15T08:06:32.278Z,101591.38
2023-02-15T08:09:03.334Z,101596.34
2023-02-15T08:11:40.981Z,101591.88
2023-02-15T08:14:16.827Z,101589.03
2023-02-15T08:16:48.411Z,101579.50
2023-02-15T08:19:20.275Z,101576.97
2023-02-15T08:21:52.727Z,101570.38
2023-02-15T08:24:28.730Z,101572.34
2023-02-15T08:27:06.662Z,101560.03
2023-02-15T08:29:38.768Z,101555.00
2023-02-15T08:32:11.112Z,101552.28
2023-02-15T08:34:43.660Z,101557.91
2023-02-15T08:37:13.834Z,101564.06
2023-02-15T08:39:47.208Z,101562.63
2023-02-15T08:42:28.467Z,101561.31
2023-02-15T08:44:58.699Z,101560.81
2023-02-15T08:47:30.533Z,101554.25
2023-02-15T08:50:00.700Z,101556.25
2023-02-15T08:52:36.995Z,101547.13
2023-02-15T08:55:11.050Z,101545.97
2023-02-15T08:57:49.497Z,101549.75
2023-02-15T09:00:23.595Z,101543.44
2023-02-15T09:02:57.539Z,101555.13
2023-02-15T09:05:27.753Z,101552.13
2023-02-15T09:07:58.307Z,101545.97
2023-02-15T09:10:31.237Z,101545.88
2023-02-15T09:13:04.059Z,101533.88
2023-02-15T09:15:42.233Z,101540.09
2023-02-15T09:18:18.010Z,101538.03
2023-02-15T09:20:48.555Z,101529.63
2023-02-15T09:23:26.839Z,101531.91
2023-02-15T09:25:57.616Z,101527.47
2023-02-15T09:28:33.709Z,101521.06
2023-02-15T09:31:16.214Z,101518.91
2023-02-15T09:33:48.276Z,101527.47
2023-02-15T09:36:22.685Z,101512.53
2023-02-15T09:38:59.473Z,101518.00
2023-02-15T09:41:58.602Z,101520.31
2023-02-15T09:44:46.634Z,101513.03
2023-02-15T09:47:38.137Z,101511.28
2023-02-15T09:50:18.094Z,101515.91
2023-02-15T09:53:04.200Z,101504.00
2023-02-15T09:55:55.232Z,101499.56
2023-02-15T09:58:36.579Z,101510.25
2023-02-15T10:01:20.720Z,101507.06
2023-02-15T10:04:03.447Z,101500.84
2023-02-15T10:06:43.385Z,101502.97
2023-02-15T10:09:33.256Z,101501.13
2023-02-15T10:12:18.808Z,101496.75
2023-02-15T10:15:15.203Z,101486.81
2023-02-15T10:18:04.574Z,101491.75
2023-02-15T10:20:44.886Z,101484.16
2023-02-15T10:23:50.857Z,101482.84
2023-02-15T10:26:24.913Z,101484.63
2023-02-15T10:29:09.621Z,101490.78
2023-02-15T10:31:52.024Z,101486.59
2023-02-15T10:34:39.649Z,101485.16
2023-02-15T10:37:38.492Z,101473.91
2023-02-15T10:40:19.311Z,101478.78
2023-02-15T10:43:08.068Z,101474.59
2023-02-15T10:45:58.563Z,101473.13
2023-02-15T10:48:49.673Z,101467.78
2023-02-15T10:51:34.661Z,101476.34
2023-02-15T10:54:16.325Z,101465.97
2023-02-15T10:56:54.576Z,101463.03
2023-02-15T10:59:44.687Z,101473.78
2023-02-15T11:02:25.929Z,101466.22
2023-02-15T11:05:11.127Z,101458.19
2023-02-15T11:07:47.556Z,101462.69
2023-02-15T11:10:31.971Z,101465.84
2023-02-15T11:13:10.258Z,101459.25
2023-02-15T11:15:45.481Z,101449.75
2023-02-15T11:18:19.980Z,101456.66
2023-02-15T11:20:58.848Z,101444.53
2023-02-15T11:23:32.288Z,101441.09
2023-02-15T11:26:06.421Z,101433.38
2023-02-15T11:28:47.202Z,101426.84
2023-02-15T11:31:21.477Z,101427.03
2023-02-15T11:33:58.188Z,101426.75
2023-02-15T11:36:33.596Z,101418.78
2023-02-15T11:39:17.238Z,101418.66
2023-02-15T11:41:55.098Z,101416.31
2023-02-15T11:44:30.606Z,101405.09
2023-02-15T11:47:04.288Z,101412.44
2023-02-15T11:49:42.129Z,101406.56
2023-02-15T11:52:17.306Z,101404.22
2023-02-15T11:54:54.149Z,101399.44
2023-02-15T11:57:33.005Z,101398.63
2023-02-15T12:00:11.025Z,101398.19
2023-02-15T12:02:45.108Z,101391.19
2023-02-15T12:05:20.226Z,101380.84
2023-02-15T12:07:54.435Z,101388.63
2023-02-15T12:10:28.932Z,101378.50
2023-02-15T12:13:14.368Z,101377.25
2023-02-15T12:15:50.949Z,101378.88
2023-02-15T12:18:45.298Z,101363.47
2023-02-15T12:21:19.327Z,101363.41
2023-02-15T12:23:54.480Z,101362.34
2023-02-15T12:26:33.972Z,101354.06
2023-02-15T12:29:10.799Z,101362.00
2023-02-15T12:31:44.826Z,101352.34
2023-02-15T12:34:22.880Z,101346.53
2023-02-15T12:36:58.997Z,101343.16
2023-02-15T12:39:31.333Z,101345.09
2023-02-15T12:42:08.323Z,101338.81
2023-02-15T12:44:40.267Z,101342.50
2023-02-15T12:47:28.925Z,101344.66
2023-02-15T12:50:18.739Z,101333.00
2023-02-15T12:52:51.374Z,101339.34
2023-02-15T12:55:28.369Z,101329.91
2023-02-15T12:58:21.651Z,101319.44
2023-02-15T13:00:52.210Z,101327.00
2023-02-15T13:03:28.440Z,101315.00
2023-02-15T13:06:08.354Z,101303.56
2023-02-15T13:08:43.302Z,101309.69
2023-02-15T13:11:15.806Z,101311.41
2023-02-15T13:13:57.421Z,101315.38
2023-02-15T13:16:36.032Z,101310.69
2023-02-15T13:19:13.077Z,101310.84
2023-02-15T13:21:48.554Z,101306.44
2023-02-15T13:24:25.297Z,101301.13
2023-02-15T13:27:12.880Z,101309.94
2023-02-15T13:29:50.794Z,101301.41
2023-02-15T13:32:30.859Z,101301.13
2023-02-15T13:35:06.668Z,101300.88
2023-02-15T13:38:31.066Z,101298.44
2023-02-15T13:41:07.018Z,101299.53
2023-02-15T13:43:48.084Z,101300.03
2023-02-15T13:46:32.827Z,101304.75
2023-02-15T13:49:19.994Z,101288.72
2023-02-15T13:52:04.904Z,101287.97
2023-02-15T13:55:01.954Z,101291.44
2023-02-15T13:57:48.282Z,101295.63
2023-02-15T14:00:26.844Z,101296.69
2023-02-15T14:03:30.674Z,101295.06
2023-02-15T14:06:22.535Z,101293.94
2023-02-15T14:09:05.951Z,101297.78
2023-02-15T14:11:43.660Z,101291.75
2023-02-15T14:14:41.824Z,101289.13
2023-02-15T14:17:26.130Z,101286.09
2023-02-15T14:20:01.678Z,101295.25
2023-02-15T14:22:40.305Z,101292.22
2023-02-15T14:25:22.606Z,101286.63
2023-02-15T14:28:03.290Z,101294.38
2023-02-15T14:30:38.725Z,101292.53
2023-02-15T14:33:12.328Z,101291.38
2023-02-15T14:35:46.639Z,101295.28
2023-02-15T14:38:26.272Z,101288.31
2023-02-15T14:41:04.672Z,101280.97
2023-02-15T14:43:47.068Z,101287.72
2023-02-15T14:46:35.845Z,101286.78
2023-02-15T14:49:11.090Z,101289.50
2023-02-15T14:52:06.049Z,101286.69
2023-02-15T14:55:01.880Z,101287.28
2023-02-15T14:57:39.711Z,101281.44
2023-02-15T15:00:42.688Z,101277.50
2023-02-15T15:03:24.948Z,101284.50
2023-02-15T15:06:00.466Z,101276.69
2023-02-15T15:08:38.728Z,101281.47
2023-02-15T15:11:46.891Z,101284.34
2023-02-15T15:14:42.784Z,101283.75
2023-02-15T15:17:39.726Z,101280.91
2023-02-15T15:20:41.791Z,101266.66
2023-02-15T15:23:45.970Z,101277.25
2023-02-15T15:26:31.816Z,101276.84
2023-02-15T15:29:07.464Z,101273.78
2023-02-15T15:31:55.632Z,101275.34
2023-02-15T15:34:45.007Z,101267.59
2023-02-15T15:37:44.769Z,101268.81
2023-02-15T15:40:53.473Z,101272.81
2023-02-15T15:43:57.990Z,101266.38
2023-02-15T15:46:52.353Z,101271.75
2023-02-15T15:49:24.886Z,101264.91
2023-02-15T15:51:56.002Z,101263.78
2023-02-15T15:54:30.170Z,101264.00
2023-02-15T15:57:04.894Z,101265.28
2023-02-15T15:59:47.120Z,101259.94
2023-02-15T16:02:24.715Z,101272.53
2023-02-15T16:04:55.398Z,101270.44
2023-02-15T16:07:32.754Z,101272.09
2023-02-15T16:10:07.439Z,101284.13
2023-02-15T16:12:40.995Z,101282.25
2023-02-15T16:15:24.743Z,101289.69
2023-02-15T16:17:58.064Z,101289.13
2023-02-15T16:20:31.435Z,101290.47
2023-02-15T16:23:27.606Z,101302.56
2023-02-15T16:26:07.952Z,101298.00
2023-02-15T16:28:38.134Z,101286.38
2023-02-15T16:31:16.559Z,101299.22
2023-02-15T16:33:52.727Z,101294.69
2023-02-15T16:36:28.980Z,101290.94
2023-02-15T16:39:22.284Z,101291.03
2023-02-15T16:42:03.259Z,101302.31
2023-02-15T16:44:36.730Z,101301.00
2023-02-15T16:47:18.801Z,101293.56
2023-02-15T16:49:55.014Z,101300.16
2023-02-15T16:52:31.969Z,101299.56
2023-02-15T16:55:07.586Z,101292.16
2023-02-15T16:57:41.826Z,101293.34
2023-02-15T17:00:26.872Z,101300.63
2023-02-15T17:03:03.364Z,101284.47
2023-02-15T17:05:36.581Z,101284.41
2023-02-15T17:08:19.683Z,101283.13
2023-02-15T17:11:14.795Z,101280.59
2023-02-15T17:14:28.421Z,101276.56
2023-02-15T17:17:06.135Z,101285.50
2023-02-15T17:19:51.318Z,101276.97
2023-02-15T17:22:24.535Z,101284.19
2023-02-15T17:25:08.757Z,101284.44
2023-02-15T17:27:40.628Z,101290.78
2023-02-15T17:30:20.570Z,101288.97
2023-02-15T17:32:57.759Z,101290.09
2023-02-15T17:35:32.382Z,101292.88
2023-02-15T17:38:23.800Z,101292.28
2023-02-15T17:41:05.858Z,101292.00
2023-02-15T17:43:44.881Z,101283.09
2023-02-15T17:46:19.807Z,101297.03
2023-02-15T17:48:52.439Z,101298.94
2023-02-15T17:51:35.949Z,101305.72
2023-02-15T17:54:19.195Z,101313.91
2023-02-15T17:56:53.355Z,101306.44
2023-02-15T17:59:24.243Z,101307.53
2023-02-15T18:02:08.735Z,101307.84
2023-02-15T18:04:52.308Z,101312.19
2023-02-15T18:07:37.870Z,101301.88
2023-02-15T18:10:28.598Z,101305.59
2023-02-15T18:12:59.086Z,101316.75
2023-02-15T18:15:29.972Z,101309.00
2023-02-15T18:18:00.657Z,101312.72
2023-02-15T18:20:37.060Z,101307.50
2023-02-15T18:23:15.627Z,101312.84
2023-02-15T18:25:51.181Z,101304.31
2023-02-15T18:28:26.960Z,101314.88
2023-02-15T18:31:06.442Z,101309.03
2023-02-15T18:33:49.293Z,101311.94
2023-02-15T18:36:26.087Z,101314.50
2023-02-15T18:39:03.773Z,101311.19
2023-02-15T18:41:36.746Z,101319.78
2023-02-15T18:44:12.056Z,101316.44
2023-02-15T18:46:42.675Z,101312.22
2023-02-15T18:49:16.257Z,101314.09
2023-02-15T18:51:47.541Z,101308.03
2023-02-15T18:54:33.666Z,101302.81
2023-02-15T18:57:07.417Z,101309.69
2023-02-15T18:59:38.933Z,101309.81
2023-02-15T19:02:15.713Z,101307.47
2023-02-15T19:04:46.720Z,101297.28
2023-02-15T19:07:23.401Z,101307.72
2023-02-15T19:10:02.704Z,101303.53
2023-02-15T19:12:36.679Z,101307.16
2023-02-15T19:15:09.086Z,101304.59
2023-02-15T19:17:42.831Z,101309.00
2023-02-15T19:20:22.863Z,101309.97
2023-02-15T19:22:55.209Z,101304.03
2023-02-15T19:25:30.729Z,101307.59
2023-02-15T19:28:04.745Z,101311.03
2023-02-15T19:30:37.370Z,101311.94
2023-02-15T19:33:10.313Z,101311.25
2023-02-15T19:35:40.636Z,101301.78
2023-02-15T19:38:25.514Z,101304.56
2023-02-15T19:41:04.992Z,101292.50
2023-02-15T19:43:41.866Z,101303.78
2023-02-15T19:46:20.727Z,101302.13
2023-02-15T19:48:56.188Z,101301.31
2023-02-15T19:51:28.852Z,101308.34
2023-02-15T19:54:00.213Z,101303.25
2023-02-15T19:56:36.288Z,101302.47
2023-02-15T19:59:09.082Z,101297.41
2023-02-15T20:01:40.080Z,101296.75
2023-02-15T20:04:13.235Z,101296.75
2023-02-15T20:06:44.575Z,101296.00
2023-02-15T20:09:24.079Z,101299.47
2023-02-15T20:12:00.444Z,101290.88
2023-02-15T20:14:31.468Z,101291.84
2023-02-15T20:17:03.017Z,101294.53
2023-02-15T20:19:33.806Z,101290.28
2023-02-15T20:22:04.934Z,101294.75
2023-02-15T20:24:37.815Z,101294.88
2023-02-15T20:27:22.151Z,101271.81
2023-02-15T20:29:59.769Z,101285.59
2023-02-15T20:32:32.765Z,101282.16
2023-02-15T20:35:04.149Z,101280.50
2023-02-15T20:37:38.184Z,101281.34
2023-02-15T20:40:16.906Z,101282.28
2023-02-15T20:42:50.372Z,101274.56
2023-02-15T20:45:23.871Z,101273.03
2023-02-15T20:47:55.865Z,101277.38
2023-02-15T20:50:30.049Z,101278.38
2023-02-15T20:53:03.270Z,101279.34
2023-02-15T20:55:36.492Z,101275.16
2023-02-15T20:58:22.571Z,101278.75
2023-02-15T21:00:54.825Z,101276.34
2023-02-15T21:03:31.295Z,101284.28
2023-02-15T21:06:02.174Z,101272.41
2023-02-15T21:08:33.505Z,101278.41
2023-02-15T21:11:04.541Z,101271.47
2023-02-15T21:13:38.797Z,101278.41
2023-02-15T21:16:10.649Z,101280.13
2023-02-15T21:18:45.030Z,101271.53
2023-02-15T21:21:23.889Z,101282.72
2023-02-15T21:23:57.360Z,101283.56
2023-02-15T21:26:28.155Z,101276.84
2023-02-15T21:29:01.877Z,101271.72
2023-02-15T21:31:34.684Z,101280.47
2023-02-15T21:34:09.805Z,101274.59
2023-02-15T21:36:42.197Z,101269.63
2023-02-15T21:39:19.304Z,101283.56
2023-02-15T21:42:05.911Z,101285.34
2023-02-15T21:44:52.103Z,101288.03
2023-02-15T21:47:41.522Z,101286.38
2023-02-15T21:50:28.135Z,101285.53
2023-02-15T21:52:59.470Z,101284.69
2023-02-15T21:55:30.158Z,101286.31
2023-02-15T21:58:00.792Z,101279.34
2023-02-15T22:00:34.272Z,101274.88
2023-02-15T22:03:04.732Z,101278.28
2023-02-15T22:05:38.483Z,101282.66
2023-02-15T22:08:15.789Z,101275.75
2023-02-15T22:10:48.163Z,101280.97
2023-02-15T22:13:22.781Z,101285.28
2023-02-15T22:16:02.101Z,101280.31
2023-02-15T22:18:34.696Z,101285.44
2023-02-15T22:21:05.286Z,101292.47
2023-02-15T22:23:37.647Z,101282.22
2023-02-15T22:26:11.668Z,101293.53
2023-02-15T22:28:44.528Z,101283.22
2023-02-15T22:31:24.210Z,101287.59
2023-02-15T22:34:01.549Z,101286.88
2023-02-15T22:36:33.416Z,101285.19
2023-02-15T22:39:04.386Z,101282.66
2023-02-15T22:41:34.803Z,101277.59
2023-02-15T22:44:05.032Z,101283.72
2023-02-15T22:46:38.469Z,101285.53
2023-02-15T22:49:10.102Z,101278.72
2023-02-15T22:51:43.427Z,101280.47
2023-02-15T22:54:16.866Z,101276.19
2023-02-15T22:56:49.882Z,101284.97
2023-02-15T22:59:29.055Z,101276.34
2023-02-15T23:02:09.173Z,101276.34
2023-02-15T23:04:42.574Z,101275.59
2023-02-15T23:07:17.419Z,101268.75
2023-02-15T23:09:48.259Z,101259.38
2023-02-15T23:12:50.532Z,101274.09
2023-02-15T23:15:20.910Z,101267.25
2023-02-15T23:17:54.011Z,101266.38
2023-02-15T23:20:24.292Z,101272.44
2023-02-15T23:22:57.436Z,101267.28
2023-02-15T23:25:30.239Z,101264.69
2023-02-15T23:28:00.521Z,101266.44
2023-02-15T23:30:34.585Z,101263.84
2023-02-15T23:33:09.506Z,101266.53
2023-02-15T23:35:39.717Z,101259.72
2023-02-15T23:38:24.782Z,101262.38
2023-02-15T23:41:11.347Z,101263.31
2023-02-15T23:43:48.413Z,101267.59
2023-02-15T23:46:38.159Z,101264.25
2023-02-15T23:49:17.571Z,101258.25
2023-02-15T23:51:50.487Z,101251.38
2023-02-15T23:54:23.260Z,101262.63
2023-02-15T23:56:57.298Z,101253.16
2023-02-15T23:59:31.387Z,101254.00
